createdAt,value
2019-03-15T00:02:59.225Z,18.78
2019-03-15T00:08:54.226Z,28.2
2019-03-15T00:14:49.221Z,23.63
2019-03-15T00:20:44.241Z,18.3
2019-03-15T00:26:39.284Z,44.74
2019-03-15T00:32:34.230Z,22.71
2019-03-15T00:38:29.282Z,14.02
2019-03-15T00:44:24.269Z,19.65
2019-03-15T00:50:19.278Z,21.54
2019-03-15T00:56:14.262Z,18.36
2019-03-15T01:02:09.268Z,21.25
2019-03-15T01:08:04.287Z,19.98
2019-03-15T01:13:59.326Z,15.86
2019-03-15T01:19:54.292Z,19.33
2019-03-15T01:25:49.302Z,14.54
2019-03-15T01:31:44.308Z,20.01
2019-03-15T01:37:39.315Z,14.3
2019-03-15T01:43:34.317Z,17.28
2019-03-15T01:49:29.334Z,18.7
2019-03-15T01:55:24.310Z,16.02
2019-03-15T02:01:19.353Z,19.72
2019-03-15T02:07:14.321Z,14.26
2019-03-15T02:13:09.338Z,20.94
2019-03-15T02:19:04.323Z,13.55
2019-03-15T02:24:59.359Z,17
2019-03-15T02:30:54.343Z,23.86
2019-03-15T02:36:49.389Z,23.23
2019-03-15T02:42:44.373Z,16.43
2019-03-15T02:48:40.629Z,16.65
2019-03-15T02:54:34.376Z,17.7
2019-03-15T03:00:29.376Z,17.66
2019-03-15T03:06:24.403Z,18.34
2019-03-15T03:12:19.380Z,17.74
2019-03-15T03:18:14.383Z,19.51
2019-03-15T03:24:09.429Z,19.38
2019-03-15T03:30:04.454Z,16
2019-03-15T03:36:00.523Z,18.92
2019-03-15T03:41:54.407Z,20.36
2019-03-15T03:47:49.420Z,18.64
2019-03-15T03:53:44.479Z,17.71
2019-03-15T03:59:39.455Z,19.19
2019-03-15T04:05:34.438Z,17.37
2019-03-15T04:11:29.467Z,12.91
2019-03-15T04:17:24.474Z,22.54
2019-03-15T04:23:19.439Z,17.48
2019-03-15T04:29:14.454Z,17.4
2019-03-15T04:35:09.469Z,18.16
2019-03-15T04:41:04.462Z,19.45
2019-03-15T04:46:59.470Z,23.27
2019-03-15T04:52:54.461Z,18.07
2019-03-15T04:58:49.466Z,21.75
2019-03-15T05:04:44.484Z,17.32
2019-03-15T05:10:39.471Z,17.35
2019-03-15T05:16:34.505Z,19.14
2019-03-15T05:22:29.494Z,19.68
2019-03-15T05:28:24.488Z,17.33
2019-03-15T05:34:19.516Z,20.76
2019-03-15T05:40:14.498Z,20.91
2019-03-15T05:46:09.628Z,19.7
2019-03-15T05:52:04.532Z,14.24
2019-03-15T05:57:59.559Z,13.93
2019-03-15T06:03:54.546Z,17.24
2019-03-15T06:09:49.573Z,21.34
2019-03-15T06:15:44.548Z,18.42
2019-03-15T06:21:39.551Z,19.85
2019-03-15T06:27:34.551Z,20.43
2019-03-15T06:33:29.583Z,14.45
2019-03-15T06:39:24.580Z,24.03
2019-03-15T06:45:19.602Z,28.16
2019-03-15T06:51:14.564Z,26.53
2019-03-15T06:57:09.589Z,23.46
2019-03-15T07:03:04.596Z,23.57
2019-03-15T07:08:59.611Z,25.33
2019-03-15T07:14:54.682Z,21.44
2019-03-15T07:20:49.589Z,20.89
2019-03-15T07:26:44.583Z,21.63
2019-03-15T07:32:39.597Z,20.95
2019-03-15T07:38:34.621Z,36.78
2019-03-15T07:44:29.697Z,36.53
2019-03-15T07:50:24.632Z,31.7
2019-03-15T07:56:19.620Z,34.57
2019-03-15T08:02:14.670Z,32.72
2019-03-15T08:08:09.648Z,19.18
2019-03-15T08:14:04.647Z,28.96
2019-03-15T08:19:59.644Z,25.43
2019-03-15T08:25:54.669Z,24.69
2019-03-15T08:31:49.638Z,27.42
2019-03-15T08:37:44.703Z,21.57
2019-03-15T08:43:39.685Z,21.54
2019-03-15T08:49:34.683Z,21.9
2019-03-15T08:55:29.683Z,17.93
2019-03-15T09:01:24.686Z,18.58
2019-03-15T09:07:19.692Z,22.1
2019-03-15T09:13:14.749Z,22.96
2019-03-15T09:19:09.709Z,21.43
2019-03-15T09:25:17.995Z,19.22
2019-03-15T09:30:59.700Z,19.02
2019-03-15T09:36:54.758Z,27.72
2019-03-15T09:42:49.724Z,22.31
2019-03-15T09:48:44.794Z,21.57
2019-03-15T09:54:39.742Z,13.69
2019-03-15T10:00:34.789Z,18.63
2019-03-15T10:06:29.729Z,16.29
2019-03-15T10:12:24.818Z,23.46
2019-03-15T10:18:19.788Z,20.04
2019-03-15T10:24:15.793Z,29.68
2019-03-15T10:30:09.806Z,15.45
2019-03-15T10:36:04.790Z,13.16
2019-03-15T10:41:59.809Z,12.49
2019-03-15T10:47:54.813Z,16.7
2019-03-15T10:53:49.804Z,12.67
2019-03-15T10:59:44.804Z,16.97
2019-03-15T11:05:39.792Z,16.25
2019-03-15T11:11:34.858Z,18.02
2019-03-15T11:17:29.847Z,14.83
2019-03-15T11:23:24.824Z,16.08
2019-03-15T11:29:19.845Z,10.99
2019-03-15T11:35:14.826Z,10.13
2019-03-15T11:41:09.862Z,17.59
2019-03-15T11:47:04.844Z,14.21
2019-03-15T11:52:59.846Z,9.79
2019-03-15T11:58:54.897Z,9.31
2019-03-15T12:04:49.906Z,13.51
2019-03-15T12:10:44.856Z,9.66
2019-03-15T12:16:39.849Z,14.31
2019-03-15T12:22:34.880Z,10.56
2019-03-15T12:28:29.946Z,14.66
2019-03-15T12:34:24.879Z,9.33
2019-03-15T12:40:19.898Z,8.41
2019-03-15T12:46:14.900Z,9.35
2019-03-15T12:52:09.886Z,5.02
2019-03-15T12:58:04.938Z,7.36
2019-03-15T13:03:59.899Z,11
2019-03-15T13:09:54.905Z,14
2019-03-15T13:15:49.914Z,5.42
2019-03-15T13:21:44.915Z,7.6
2019-03-15T13:27:39.930Z,10.03
2019-03-15T13:33:34.994Z,7.06
2019-03-15T13:39:29.956Z,13.3
2019-03-15T13:45:25.013Z,7.82
2019-03-15T13:51:22.509Z,5.83
2019-03-15T13:57:20.871Z,7.54
2019-03-15T14:03:09.949Z,8.94
2019-03-15T14:09:04.990Z,8.08
2019-03-15T14:14:59.979Z,6.22
2019-03-15T14:20:55.007Z,9.7
2019-03-15T14:26:51.046Z,8.45
2019-03-15T14:32:45.032Z,3.77
2019-03-15T14:38:39.991Z,5.56
2019-03-15T14:44:35.088Z,7.68
2019-03-15T14:50:30.044Z,7.8
2019-03-15T14:56:25.035Z,5.36
2019-03-15T15:02:20.018Z,3.52
2019-03-15T15:08:15.129Z,7.54
2019-03-15T15:14:10.087Z,6.81
2019-03-15T15:20:05.052Z,6.82
2019-03-15T15:26:00.046Z,7.03
2019-03-15T15:31:55.034Z,6.1
2019-03-15T15:37:50.098Z,5.17
2019-03-15T15:43:45.070Z,6.85
2019-03-15T15:49:40.110Z,4.64
2019-03-15T15:55:35.087Z,4.91
2019-03-15T16:01:30.080Z,7.38
2019-03-15T16:07:25.110Z,5.29
2019-03-15T16:13:20.085Z,7.56
2019-03-15T16:19:15.091Z,4.71
2019-03-15T16:25:10.124Z,5.8
2019-03-15T16:31:05.095Z,6.86
2019-03-15T16:37:00.126Z,6.18
2019-03-15T16:42:55.123Z,4.9
2019-03-15T16:48:50.125Z,4.75
2019-03-15T16:54:45.125Z,8.73
2019-03-15T17:00:40.152Z,7.43
2019-03-15T17:06:35.161Z,9.63
2019-03-15T17:12:30.173Z,6.23
2019-03-15T17:18:25.194Z,7.16
2019-03-15T17:24:20.184Z,5.03
2019-03-15T17:30:15.230Z,5.73
2019-03-15T17:36:10.169Z,5.73
2019-03-15T17:42:05.175Z,6.8
2019-03-15T17:48:00.177Z,8.39
2019-03-15T17:53:55.213Z,5.82
2019-03-15T17:59:50.208Z,14.67
2019-03-15T18:05:45.195Z,12.29
2019-03-15T18:11:40.229Z,14.45
2019-03-15T18:17:35.236Z,12.4
2019-03-15T18:23:30.205Z,12.43
2019-03-15T18:29:26.457Z,13.47
2019-03-15T18:35:32.834Z,14.1
2019-03-15T18:41:15.224Z,8.72
2019-03-15T18:47:10.246Z,12.84
2019-03-15T18:53:05.235Z,14.13
2019-03-15T18:59:00.332Z,16.64
2019-03-15T19:04:55.259Z,12.57
2019-03-15T19:10:50.262Z,7.57
2019-03-15T19:16:45.249Z,11.66
2019-03-15T19:22:40.254Z,13.87
2019-03-15T19:28:35.309Z,16.25
2019-03-15T19:34:30.271Z,14.91
2019-03-15T19:40:25.306Z,14.27
2019-03-15T19:46:20.312Z,16.83
2019-03-15T19:52:15.393Z,13.28
2019-03-15T19:58:10.315Z,10.19
2019-03-15T20:04:05.293Z,15.15
2019-03-15T20:10:00.378Z,14.57
2019-03-15T20:15:55.355Z,13.83
2019-03-15T20:21:50.311Z,11.75
2019-03-15T20:27:45.342Z,16.33
2019-03-15T20:33:40.360Z,17.07
2019-03-15T20:39:35.357Z,13.32
2019-03-15T20:45:30.346Z,12.8
2019-03-15T20:51:25.352Z,17.58
2019-03-15T20:57:20.362Z,10.73
2019-03-15T21:03:15.404Z,12.54
2019-03-15T21:09:10.370Z,12
2019-03-15T21:15:06.044Z,18.58
2019-03-15T21:21:00.402Z,12.31
2019-03-15T21:26:55.424Z,15.27
2019-03-15T21:32:50.419Z,13.23
2019-03-15T21:38:48.308Z,13.3
2019-03-15T21:44:40.496Z,16.31
2019-03-15T21:50:35.402Z,15.11
2019-03-15T21:56:30.404Z,14.56
2019-03-15T22:02:25.476Z,15.06
2019-03-15T22:08:20.440Z,23.82
2019-03-15T22:14:15.435Z,17.52
2019-03-15T22:20:10.478Z,13.62
2019-03-15T22:26:05.444Z,16.16
2019-03-15T22:32:00.492Z,16.6
2019-03-15T22:37:55.444Z,16.24
2019-03-15T22:43:50.477Z,16
2019-03-15T22:49:45.465Z,15.72
2019-03-15T22:55:40.469Z,14.85
2019-03-15T23:01:35.544Z,16.27
2019-03-15T23:07:30.478Z,16.13
2019-03-15T23:13:25.477Z,12.9
2019-03-15T23:19:20.507Z,15.25
2019-03-15T23:25:15.529Z,15.88
2019-03-15T23:31:10.512Z,14.08
2019-03-15T23:37:05.510Z,10.98
2019-03-15T23:43:00.505Z,15.11
2019-03-15T23:48:55.533Z,14.38
2019-03-15T23:54:50.521Z,13.32
